createdAt,value
2022-10-01T00:02:01.275Z,10.30
2022-10-01T00:04:27.804Z,10.30
2022-10-01T00:06:54.343Z,10.30
2022-10-01T00:09:20.853Z,10.30
2022-10-01T00:11:47.348Z,10.30
2022-10-01T00:14:13.865Z,10.30
2022-10-01T00:16:40.426Z,10.30
2022-10-01T00:19:06.963Z,10.20
2022-10-01T00:21:33.805Z,10.20
2022-10-01T00:24:00.483Z,10.20
2022-10-01T00:26:27.084Z,10.20
2022-10-01T00:28:53.615Z,10.20
2022-10-01T00:31:20.428Z,10.20
2022-10-01T00:33:47.499Z,10.20
2022-10-01T00:36:13.964Z,10.20
2022-10-01T00:38:40.571Z,10.20
2022-10-01T00:41:07.036Z,10.20
2022-10-01T00:43:33.533Z,10.20
2022-10-01T00:46:00.013Z,10.20
2022-10-01T00:48:26.518Z,10.20
2022-10-01T00:50:53.052Z,10.20
2022-10-01T00:53:19.565Z,10.20
2022-10-01T00:55:46.075Z,10.20
2022-10-01T00:58:12.544Z,10.20
2022-10-01T01:00:39.047Z,10.20
2022-10-01T01:03:05.622Z,10.20
2022-10-01T01:05:32.318Z,10.20
2022-10-01T01:08:01.492Z,10.20
2022-10-01T01:10:28.000Z,10.20
2022-10-01T01:12:55.548Z,10.10
2022-10-01T01:15:22.087Z,10.10
2022-10-01T01:17:49.130Z,10.10
2022-10-01T01:20:16.240Z,10.10
2022-10-01T01:22:42.792Z,10.10
2022-10-01T01:25:09.313Z,10.10
2022-10-01T01:27:35.894Z,10.10
2022-10-01T01:30:04.103Z,10.10
2022-10-01T01:32:30.771Z,10.10
2022-10-01T01:34:57.244Z,10.10
2022-10-01T01:37:23.831Z,10.10
2022-10-01T01:39:50.343Z,10.10
2022-10-01T01:42:16.904Z,10.10
2022-10-01T01:44:44.000Z,10.10
2022-10-01T01:47:10.614Z,10.20
2022-10-01T01:49:38.207Z,10.20
2022-10-01T01:52:04.741Z,10.20
2022-10-01T01:54:31.207Z,10.20
2022-10-01T01:56:58.214Z,10.20
2022-10-01T01:59:24.683Z,10.20
2022-10-01T02:01:51.425Z,10.20
2022-10-01T02:04:18.026Z,10.20
2022-10-01T02:06:44.541Z,10.20
2022-10-01T02:09:11.359Z,10.20
2022-10-01T02:11:38.094Z,10.10
2022-10-01T02:14:04.606Z,10.00
2022-10-01T02:16:31.148Z,10.00
2022-10-01T02:18:57.633Z,9.90
2022-10-01T02:21:24.179Z,9.80
2022-10-01T02:23:50.876Z,9.80
2022-10-01T02:26:17.406Z,9.70
2022-10-01T02:28:43.959Z,9.70
2022-10-01T02:31:10.494Z,9.60
2022-10-01T02:33:37.022Z,9.60
2022-10-01T02:36:03.516Z,9.40
2022-10-01T02:38:30.033Z,9.40
2022-10-01T02:40:56.565Z,9.20
2022-10-01T02:43:23.078Z,9.20
2022-10-01T02:45:49.717Z,9.10
2022-10-01T02:48:17.629Z,9.10
2022-10-01T02:50:44.139Z,9.10
2022-10-01T02:53:10.712Z,9.00
2022-10-01T02:55:37.217Z,9.00
2022-10-01T02:58:03.724Z,9.00
2022-10-01T03:00:30.211Z,9.00
2022-10-01T03:02:56.737Z,9.00
2022-10-01T03:05:23.357Z,8.90
2022-10-01T03:07:49.932Z,9.00
2022-10-01T03:10:16.430Z,8.90
2022-10-01T03:12:45.073Z,8.90
2022-10-01T03:15:11.720Z,8.90
2022-10-01T03:17:38.310Z,8.80
2022-10-01T03:20:05.253Z,8.80
2022-10-01T03:22:31.760Z,8.80
2022-10-01T03:24:58.249Z,8.80
2022-10-01T03:27:24.736Z,8.70
2022-10-01T03:29:51.261Z,8.70
2022-10-01T03:32:17.777Z,8.70
2022-10-01T03:34:44.263Z,8.70
2022-10-01T03:37:10.764Z,8.70
2022-10-01T03:39:37.269Z,8.70
2022-10-01T03:42:04.213Z,8.70
2022-10-01T03:44:30.699Z,8.70
2022-10-01T03:46:59.527Z,8.70
2022-10-01T03:49:26.010Z,8.60
2022-10-01T03:51:52.536Z,8.60
2022-10-01T03:54:20.201Z,8.60
2022-10-01T03:56:46.717Z,8.60
2022-10-01T03:59:13.178Z,8.60
2022-10-01T04:01:39.931Z,8.70
2022-10-01T04:04:06.488Z,8.70
2022-10-01T04:06:33.002Z,8.70
2022-10-01T04:08:59.512Z,8.70
2022-10-01T04:11:26.077Z,8.70
2022-10-01T04:13:52.752Z,8.80
2022-10-01T04:16:19.507Z,8.80
2022-10-01T04:21:15.261Z,8.80
2022-10-01T04:23:42.005Z,8.80
2022-10-01T04:26:08.565Z,8.80
2022-10-01T04:28:35.167Z,8.80
2022-10-01T04:31:20.613Z,8.80
2022-10-01T04:33:47.214Z,8.80
2022-10-01T04:36:13.712Z,8.80
2022-10-01T04:38:40.278Z,8.80
2022-10-01T04:41:06.775Z,8.80
2022-10-01T04:43:33.263Z,8.80
2022-10-01T04:45:59.737Z,8.80
2022-10-01T04:48:26.241Z,8.80
2022-10-01T04:50:52.828Z,8.80
2022-10-01T04:53:19.330Z,8.80
2022-10-01T04:55:46.532Z,8.80
2022-10-01T04:58:13.061Z,8.80
2022-10-01T05:00:39.570Z,8.80
2022-10-01T05:03:06.102Z,8.80
2022-10-01T05:05:34.868Z,8.80
2022-10-01T05:08:01.408Z,8.80
2022-10-01T05:10:27.878Z,8.80
2022-10-01T05:12:54.638Z,8.80
2022-10-01T05:15:21.126Z,8.90
2022-10-01T05:17:47.676Z,8.90
2022-10-01T05:20:14.153Z,8.90
2022-10-01T05:22:41.313Z,8.90
2022-10-01T05:25:07.797Z,8.90
2022-10-01T05:27:40.341Z,9.00
2022-10-01T05:30:06.925Z,9.00
2022-10-01T05:32:33.406Z,9.00
2022-10-01T05:34:59.881Z,9.10
2022-10-01T05:37:26.372Z,9.10
2022-10-01T05:39:52.946Z,9.20
2022-10-01T05:42:19.502Z,9.20
2022-10-01T05:44:46.302Z,9.20
2022-10-01T05:47:13.347Z,9.30
2022-10-01T05:49:42.755Z,9.40
2022-10-01T05:52:09.994Z,9.50
2022-10-01T05:54:36.513Z,9.50
2022-10-01T05:57:03.137Z,9.50
2022-10-01T05:59:31.897Z,9.50
2022-10-01T06:01:58.889Z,9.60
2022-10-01T06:04:25.525Z,9.60
2022-10-01T06:06:52.074Z,9.60
2022-10-01T06:09:18.569Z,9.70
2022-10-01T06:11:45.866Z,9.70
2022-10-01T06:14:12.392Z,9.70
2022-10-01T06:16:38.939Z,9.70
2022-10-01T06:19:05.494Z,9.80
2022-10-01T06:21:32.337Z,9.70
2022-10-01T06:23:59.031Z,9.70
2022-10-01T06:26:25.625Z,9.70
2022-10-01T06:28:52.546Z,9.70
2022-10-01T06:31:19.187Z,9.70
2022-10-01T06:33:45.768Z,9.70
2022-10-01T06:36:12.310Z,9.70
2022-10-01T06:38:38.795Z,9.70
2022-10-01T06:41:05.344Z,9.70
2022-10-01T06:43:31.882Z,9.80
2022-10-01T06:45:58.435Z,9.80
2022-10-01T06:48:25.022Z,9.80
2022-10-01T06:50:52.315Z,9.80
2022-10-01T06:53:18.861Z,9.80
2022-10-01T06:55:45.473Z,9.80
2022-10-01T06:58:11.920Z,9.80
2022-10-01T07:00:39.108Z,9.70
2022-10-01T07:03:06.453Z,9.70
2022-10-01T07:05:32.974Z,9.70
2022-10-01T07:07:59.494Z,9.70
2022-10-01T07:10:25.980Z,9.70
2022-10-01T07:12:52.711Z,9.80
2022-10-01T07:15:19.206Z,9.70
2022-10-01T07:17:45.746Z,9.80
2022-10-01T07:20:12.310Z,9.70
2022-10-01T07:22:38.875Z,9.80
2022-10-01T07:25:05.328Z,9.80
2022-10-01T07:27:31.794Z,9.80
2022-10-01T07:29:59.016Z,9.80
2022-10-01T07:32:25.649Z,9.80
2022-10-01T07:34:52.128Z,9.90
2022-10-01T07:37:18.625Z,9.90
2022-10-01T07:39:45.086Z,9.90
2022-10-01T07:42:11.551Z,10.00
2022-10-01T07:44:38.041Z,10.00
2022-10-01T07:47:04.665Z,10.00
2022-10-01T07:49:31.212Z,10.10
2022-10-01T07:51:58.974Z,10.20
2022-10-01T07:54:25.474Z,10.20
2022-10-01T07:56:55.654Z,10.20
2022-10-01T07:59:22.136Z,10.30
2022-10-01T08:01:48.672Z,10.40
2022-10-01T08:04:33.969Z,10.50
2022-10-01T08:07:00.590Z,10.60
2022-10-01T08:09:27.055Z,10.60
2022-10-01T08:11:53.572Z,10.60
2022-10-01T08:14:20.426Z,10.60
2022-10-01T08:16:47.362Z,10.60
2022-10-01T08:19:14.926Z,10.60
2022-10-01T08:21:41.391Z,10.60
2022-10-01T08:24:07.860Z,10.60
2022-10-01T08:26:34.359Z,10.60
2022-10-01T08:29:00.864Z,10.60
2022-10-01T08:31:27.462Z,10.60
2022-10-01T08:33:53.972Z,10.70
2022-10-01T08:36:20.476Z,10.70
2022-10-01T08:38:46.990Z,10.80
2022-10-01T08:41:13.485Z,10.90
2022-10-01T08:43:40.002Z,10.90
2022-10-01T08:46:06.587Z,10.90
2022-10-01T08:48:33.116Z,11.00
2022-10-01T08:51:00.566Z,11.00
2022-10-01T08:53:27.038Z,11.00
2022-10-01T08:55:53.970Z,11.00
2022-10-01T08:58:20.454Z,11.00
2022-10-01T09:00:46.970Z,11.10
2022-10-01T09:03:13.493Z,11.20
2022-10-01T09:05:39.975Z,11.30
2022-10-01T09:08:06.476Z,11.50
2022-10-01T09:10:32.958Z,11.60
2022-10-01T09:12:59.517Z,11.70
2022-10-01T09:15:26.045Z,11.80
2022-10-01T09:17:53.085Z,11.90
2022-10-01T09:20:19.594Z,11.90
2022-10-01T09:22:46.053Z,12.00
2022-10-01T09:25:13.255Z,12.00
2022-10-01T09:27:39.716Z,12.00
2022-10-01T09:30:06.203Z,12.10
2022-10-01T09:32:32.763Z,12.10
2022-10-01T09:35:07.272Z,12.20
2022-10-01T09:37:33.769Z,12.20
2022-10-01T09:40:00.244Z,12.30
2022-10-01T09:42:26.705Z,12.40
2022-10-01T09:44:54.951Z,12.50
2022-10-01T09:47:21.547Z,12.50
2022-10-01T09:49:48.040Z,12.50
2022-10-01T09:52:15.074Z,12.60
2022-10-01T09:54:43.080Z,12.60
2022-10-01T09:57:09.621Z,12.60
2022-10-01T09:59:36.129Z,12.50
2022-10-01T10:02:05.141Z,12.60
2022-10-01T10:04:33.296Z,12.60
2022-10-01T10:06:59.807Z,12.60
2022-10-01T10:09:26.300Z,12.60
2022-10-01T10:11:52.939Z,12.70
2022-10-01T10:14:20.395Z,12.80
2022-10-01T10:16:47.680Z,12.80
2022-10-01T10:19:14.160Z,12.90
2022-10-01T10:21:41.776Z,12.90
2022-10-01T10:24:08.272Z,13.00
2022-10-01T10:26:35.179Z,13.00
2022-10-01T10:29:02.381Z,12.90
2022-10-01T10:31:29.000Z,12.90
2022-10-01T10:33:57.342Z,12.90
2022-10-01T10:36:23.825Z,12.80
2022-10-01T10:38:50.294Z,12.80
2022-10-01T10:41:17.465Z,12.70
2022-10-01T10:43:44.531Z,12.70
2022-10-01T10:46:11.200Z,12.60
2022-10-01T10:48:37.772Z,12.60
2022-10-01T10:51:04.315Z,12.50
2022-10-01T10:53:33.508Z,12.50
2022-10-01T10:56:01.091Z,12.50
2022-10-01T10:58:27.704Z,12.40
2022-10-01T11:00:54.223Z,12.30
2022-10-01T11:03:20.700Z,12.30
2022-10-01T11:05:51.607Z,12.30
2022-10-01T11:08:18.095Z,12.30
2022-10-01T11:10:44.641Z,12.20
2022-10-01T11:13:11.144Z,12.30
2022-10-01T11:15:37.681Z,12.30
2022-10-01T11:18:04.256Z,12.50
2022-10-01T11:20:33.541Z,12.60
2022-10-01T11:23:00.140Z,12.80
2022-10-01T11:25:26.631Z,13.10
2022-10-01T11:27:53.309Z,13.30
2022-10-01T11:30:19.863Z,13.50
2022-10-01T11:32:46.459Z,13.70
2022-10-01T11:35:13.022Z,13.90
2022-10-01T11:37:39.476Z,14.10
2022-10-01T11:40:05.983Z,14.30
2022-10-01T11:42:34.675Z,14.40
2022-10-01T11:45:03.167Z,14.40
2022-10-01T11:47:29.698Z,14.50
2022-10-01T11:49:56.171Z,14.50
2022-10-01T11:52:23.518Z,14.40
2022-10-01T11:54:54.223Z,14.40
2022-10-01T11:57:41.234Z,14.50
2022-10-01T12:00:07.985Z,14.60
2022-10-01T12:02:42.518Z,14.60
2022-10-01T12:05:10.286Z,14.80
2022-10-01T12:07:37.803Z,14.80
2022-10-01T12:10:07.444Z,14.80
2022-10-01T12:12:35.750Z,14.90
2022-10-01T12:15:10.025Z,15.00
2022-10-01T12:17:41.031Z,15.00
2022-10-01T12:20:14.890Z,15.10
2022-10-01T12:22:44.400Z,15.30
2022-10-01T12:25:10.897Z,15.30
2022-10-01T12:27:37.829Z,15.40
2022-10-01T12:30:04.383Z,15.40
2022-10-01T12:32:30.853Z,15.50
2022-10-01T12:34:57.384Z,15.60
2022-10-01T12:37:23.851Z,15.60
2022-10-01T12:39:50.408Z,15.60
2022-10-01T12:42:16.916Z,15.60
2022-10-01T12:44:44.436Z,15.40
2022-10-01T12:47:11.516Z,15.20
2022-10-01T12:49:37.991Z,15.00
2022-10-01T12:52:04.458Z,14.80
2022-10-01T12:54:30.934Z,14.50
2022-10-01T12:56:57.495Z,14.20
2022-10-01T12:59:24.265Z,14.10
2022-10-01T13:01:50.781Z,14.10
2022-10-01T13:04:17.317Z,14.10
2022-10-01T13:06:43.808Z,13.90
2022-10-01T13:09:10.273Z,13.80
2022-10-01T13:11:37.253Z,13.70
2022-10-01T13:14:04.312Z,13.60
2022-10-01T13:16:30.926Z,13.40
2022-10-01T13:18:57.412Z,13.30
2022-10-01T13:21:23.900Z,13.10
2022-10-01T13:23:50.428Z,13.20
2022-10-01T13:26:19.997Z,13.40
2022-10-01T13:28:46.496Z,13.70
2022-10-01T13:31:14.596Z,13.80
2022-10-01T13:33:41.135Z,13.90
2022-10-01T13:36:07.660Z,13.80
2022-10-01T13:38:34.129Z,13.60
2022-10-01T13:41:01.682Z,13.60
2022-10-01T13:43:28.151Z,13.60
2022-10-01T13:45:54.926Z,13.60
2022-10-01T13:48:22.315Z,13.60
2022-10-01T13:50:48.916Z,13.70
2022-10-01T13:53:15.466Z,13.80
2022-10-01T13:55:42.175Z,14.00
2022-10-01T13:58:08.635Z,14.10
2022-10-01T14:00:35.224Z,14.10
2022-10-01T14:03:01.805Z,13.90
2022-10-01T14:05:28.709Z,13.90
2022-10-01T14:07:55.613Z,13.90
2022-10-01T14:10:22.279Z,13.70
2022-10-01T14:13:07.776Z,13.60
2022-10-01T14:15:40.326Z,13.60
2022-10-01T14:18:06.874Z,13.60
2022-10-01T14:20:33.502Z,13.60
2022-10-01T14:23:00.032Z,13.60
2022-10-01T14:25:26.540Z,13.70
2022-10-01T14:27:53.089Z,13.70
2022-10-01T14:30:19.635Z,13.70
2022-10-01T14:32:50.749Z,13.80
2022-10-01T14:35:19.370Z,13.90
2022-10-01T14:37:46.123Z,13.90
2022-10-01T14:40:12.615Z,13.80
2022-10-01T14:42:39.081Z,13.60
2022-10-01T14:45:05.571Z,13.40
2022-10-01T14:47:35.527Z,13.30
2022-10-01T14:50:02.024Z,13.20
2022-10-01T14:52:31.992Z,13.10
2022-10-01T14:54:59.000Z,13.00
2022-10-01T14:57:25.482Z,13.00
2022-10-01T14:59:51.989Z,13.00
2022-10-01T15:02:18.470Z,13.10
2022-10-01T15:04:45.306Z,13.10
2022-10-01T15:07:11.988Z,13.20
2022-10-01T15:09:38.486Z,13.40
2022-10-01T15:12:05.032Z,13.50
2022-10-01T15:14:32.096Z,13.60
2022-10-01T15:16:58.630Z,13.60
2022-10-01T15:19:25.280Z,13.70
2022-10-01T15:21:51.807Z,13.60
2022-10-01T15:24:18.399Z,13.60
2022-10-01T15:26:44.896Z,13.50
2022-10-01T15:29:11.360Z,13.30
2022-10-01T15:31:38.087Z,13.20
2022-10-01T15:34:04.591Z,13.10
2022-10-01T15:36:31.133Z,13.00
2022-10-01T15:38:57.619Z,12.90
2022-10-01T15:41:31.838Z,12.80
2022-10-01T15:43:58.708Z,12.70
2022-10-01T15:46:25.302Z,12.70
2022-10-01T15:48:51.863Z,12.70
2022-10-01T15:51:18.370Z,12.70
2022-10-01T15:53:44.839Z,12.70
2022-10-01T15:56:11.308Z,12.70
2022-10-01T15:58:39.024Z,12.60
2022-10-01T16:01:05.600Z,12.70
2022-10-01T16:03:32.401Z,12.60
2022-10-01T16:06:01.714Z,12.60
2022-10-01T16:08:34.029Z,12.60
2022-10-01T16:11:00.681Z,12.50
2022-10-01T16:13:28.888Z,12.40
2022-10-01T16:15:55.463Z,12.50
2022-10-01T16:18:22.228Z,12.50
2022-10-01T16:20:51.097Z,12.50
2022-10-01T16:23:18.407Z,12.50
2022-10-01T16:25:45.131Z,12.50
2022-10-01T16:28:11.931Z,12.40
2022-10-01T16:30:38.509Z,12.40
2022-10-01T16:35:35.429Z,12.40
2022-10-01T16:38:01.961Z,12.40
2022-10-01T16:40:28.458Z,12.40
2022-10-01T16:42:54.992Z,12.40
2022-10-01T16:45:22.569Z,12.40
2022-10-01T16:47:49.112Z,12.40
2022-10-01T16:50:15.638Z,12.40
2022-10-01T16:52:42.115Z,12.40
2022-10-01T16:55:08.626Z,12.30
2022-10-01T16:57:35.117Z,12.30
2022-10-01T17:00:01.600Z,12.30
2022-10-01T17:02:28.197Z,12.30
2022-10-01T17:04:54.747Z,12.30
2022-10-01T17:07:21.236Z,12.30
2022-10-01T17:09:48.771Z,12.30
2022-10-01T17:12:15.641Z,12.30
2022-10-01T17:14:42.710Z,12.20
2022-10-01T17:17:09.200Z,12.20
2022-10-01T17:19:35.696Z,12.30
2022-10-01T17:22:02.221Z,12.20
2022-10-01T17:24:28.705Z,12.20
2022-10-01T17:26:55.277Z,12.20
2022-10-01T17:29:21.801Z,12.20
2022-10-01T17:31:53.057Z,12.20
2022-10-01T17:34:20.496Z,12.20
2022-10-01T17:36:47.063Z,12.20
2022-10-01T17:39:13.581Z,12.20
2022-10-01T17:41:40.051Z,12.20
2022-10-01T17:44:06.545Z,12.20
2022-10-01T17:46:33.337Z,12.20
2022-10-01T17:49:00.018Z,12.20
2022-10-01T17:51:26.608Z,12.10
2022-10-01T17:53:54.842Z,12.10
2022-10-01T17:56:21.383Z,12.10
2022-10-01T17:58:47.900Z,12.10
2022-10-01T18:01:14.489Z,12.00
2022-10-01T18:03:41.807Z,12.00
2022-10-01T18:06:13.404Z,12.00
2022-10-01T18:08:54.510Z,11.90
2022-10-01T18:11:21.866Z,11.90
2022-10-01T18:13:48.406Z,11.90
2022-10-01T18:16:18.924Z,12.00
2022-10-01T18:19:51.840Z,12.00
2022-10-01T18:21:32.721Z,11.90
2022-10-01T18:24:03.993Z,12.00
2022-10-01T18:26:31.159Z,12.00
2022-10-01T18:28:57.829Z,12.00
2022-10-01T18:31:26.365Z,12.00
2022-10-01T18:33:52.968Z,12.00
2022-10-01T18:36:19.475Z,12.00
2022-10-01T18:38:45.985Z,12.00
2022-10-01T18:41:12.478Z,12.00
2022-10-01T18:43:39.009Z,12.00
2022-10-01T18:46:05.528Z,12.00
2022-10-01T18:48:32.078Z,12.00
2022-10-01T18:50:58.617Z,12.00
2022-10-01T18:53:25.154Z,12.00
2022-10-01T18:55:51.621Z,12.00
2022-10-01T18:58:19.211Z,12.00
2022-10-01T19:00:45.854Z,12.00
2022-10-01T19:03:12.424Z,12.00
2022-10-01T19:05:38.895Z,12.00
2022-10-01T19:08:05.361Z,12.00
2022-10-01T19:10:31.865Z,12.00
2022-10-01T19:12:58.414Z,11.90
2022-10-01T19:15:24.894Z,11.90
2022-10-01T19:17:51.496Z,11.90
2022-10-01T19:20:18.019Z,11.90
2022-10-01T19:22:44.500Z,11.90
2022-10-01T19:25:11.306Z,11.90
2022-10-01T19:27:40.894Z,11.90
2022-10-01T19:30:08.287Z,11.80
2022-10-01T19:32:34.775Z,11.80
2022-10-01T19:35:01.298Z,11.80
2022-10-01T19:37:27.839Z,11.80
2022-10-01T19:39:54.332Z,11.80
2022-10-01T19:42:21.011Z,11.70
2022-10-01T19:44:47.505Z,11.70
2022-10-01T19:47:13.969Z,11.70
2022-10-01T19:49:40.468Z,11.60
2022-10-01T19:52:06.979Z,11.70
2022-10-01T19:54:33.484Z,11.70
2022-10-01T19:56:59.948Z,11.60
2022-10-01T19:59:26.773Z,11.60
2022-10-01T20:01:53.307Z,11.50
2022-10-01T20:04:21.168Z,11.50
2022-10-01T20:06:47.690Z,11.50
2022-10-01T20:09:14.440Z,11.50
2022-10-01T20:11:40.922Z,11.50
2022-10-01T20:14:07.445Z,11.50
2022-10-01T20:16:36.075Z,11.50
2022-10-01T20:19:03.136Z,11.50
2022-10-01T20:21:29.673Z,11.40
2022-10-01T20:23:56.571Z,11.40
2022-10-01T20:26:23.097Z,11.50
2022-10-01T20:28:51.854Z,11.50
2022-10-01T20:31:18.378Z,11.50
2022-10-01T20:33:44.920Z,11.50
2022-10-01T20:36:11.397Z,11.50
2022-10-01T20:38:37.931Z,11.50
2022-10-01T20:41:04.409Z,11.50
2022-10-01T20:43:31.404Z,11.50
2022-10-01T20:45:57.993Z,11.40
2022-10-01T20:48:24.537Z,11.40
2022-10-01T20:50:51.064Z,11.40
2022-10-01T20:53:17.564Z,11.40
2022-10-01T20:55:44.031Z,11.40
2022-10-01T20:58:10.543Z,11.50
2022-10-01T21:00:37.362Z,11.40
2022-10-01T21:03:04.092Z,11.40
2022-10-01T21:05:31.371Z,11.40
2022-10-01T21:07:58.154Z,11.40
2022-10-01T21:10:26.871Z,11.40
2022-10-01T21:12:53.402Z,11.40
2022-10-01T21:15:19.937Z,11.40
2022-10-01T21:17:46.398Z,11.40
2022-10-01T21:20:12.992Z,11.40
2022-10-01T21:22:41.368Z,11.40
2022-10-01T21:25:07.919Z,11.50
2022-10-01T21:27:34.566Z,11.50
2022-10-01T21:30:01.153Z,11.50
2022-10-01T21:32:30.124Z,11.50
2022-10-01T21:34:56.871Z,11.50
2022-10-01T21:37:23.337Z,11.50
2022-10-01T21:39:49.886Z,11.50
2022-10-01T21:42:16.395Z,11.60
2022-10-01T21:44:42.885Z,11.60
2022-10-01T21:47:09.335Z,11.50
2022-10-01T21:49:35.840Z,11.50
2022-10-01T21:52:02.395Z,11.60
2022-10-01T21:54:28.948Z,11.60
2022-10-01T21:56:55.417Z,11.60
2022-10-01T21:59:21.921Z,11.60
2022-10-01T22:01:48.799Z,11.60
2022-10-01T22:04:15.501Z,11.60
2022-10-01T22:06:42.070Z,11.60
2022-10-01T22:09:08.640Z,11.60
2022-10-01T22:11:35.131Z,11.60
2022-10-01T22:14:02.103Z,11.70
2022-10-01T22:16:28.638Z,11.60
2022-10-01T22:18:55.204Z,11.70
2022-10-01T22:21:21.694Z,11.70
2022-10-01T22:23:48.215Z,11.70
2022-10-01T22:26:14.677Z,11.70
2022-10-01T22:28:42.112Z,11.70
2022-10-01T22:31:08.638Z,11.70
2022-10-01T22:33:36.147Z,11.70
2022-10-01T22:36:02.663Z,11.70
2022-10-01T22:38:29.137Z,11.70
2022-10-01T22:40:55.660Z,11.70
2022-10-01T22:43:22.207Z,11.70
2022-10-01T22:45:48.755Z,11.60
2022-10-01T22:48:15.335Z,11.60
2022-10-01T22:50:41.903Z,11.60
2022-10-01T22:53:08.630Z,11.60
2022-10-01T22:55:35.116Z,11.60
2022-10-01T22:58:01.667Z,11.60
2022-10-01T23:00:28.182Z,11.70
2022-10-01T23:02:54.685Z,11.60
2022-10-01T23:05:21.257Z,11.60
2022-10-01T23:07:47.748Z,11.50
2022-10-01T23:10:15.176Z,11.50
2022-10-01T23:12:41.699Z,11.50
2022-10-01T23:15:08.197Z,11.50
2022-10-01T23:17:35.037Z,11.50
2022-10-01T23:20:01.518Z,11.50
2022-10-01T23:22:28.029Z,11.40
2022-10-01T23:24:54.529Z,11.50
2022-10-01T23:27:21.024Z,11.50
2022-10-01T23:29:47.521Z,11.50
2022-10-01T23:32:14.087Z,11.50
2022-10-01T23:34:40.579Z,11.50
2022-10-01T23:37:07.078Z,11.60
2022-10-01T23:39:33.595Z,11.60
2022-10-01T23:42:00.094Z,11.60
2022-10-01T23:44:26.650Z,11.60
2022-10-01T23:46:53.124Z,11.70
2022-10-01T23:49:19.600Z,11.70
2022-10-01T23:51:46.113Z,11.70
2022-10-01T23:54:12.701Z,11.70
2022-10-01T23:56:48.420Z,11.70
2022-10-01T23:59:14.930Z,11.70
